Time;durP1;ratioP1;P1;durP2;ratioP2;P2;SDS_P1;SDS_P2;PMS_P1;PMS_P2;Temp;Humidity;BMP_temperature;BMP_pressure;BME280_temperature;BME280_humidity;BME280_pressure;Samples;Min_cycle;Max_cycle;Signal;HPM_P1;HPM_P2
2021/05/15 00:00:09;;;;;;;35.10;18.45;;;;;;;9.24;100.00;100520.19;6202733;28;20695;-79
2021/05/15 00:03:10;;;;;;;38.10;19.80;;;;;;;9.22;100.00;100529.06;6202747;28;20053;-79
2021/05/15 00:06:11;;;;;;;35.83;20.33;;;;;;;9.21;100.00;100522.13;6202732;28;20077;-79
2021/05/15 00:09:13;;;;;;;35.50;19.25;;;;;;;9.17;100.00;100515.34;6202517;28;20050;-79
2021/05/15 00:12:14;;;;;;;32.97;17.77;;;;;;;9.17;100.00;100521.44;6201913;28;20543;-78
2021/05/15 00:15:16;;;;;;;33.78;18.55;;;;;;;9.18;100.00;100520.53;6201590;28;20133;-80
2021/05/15 00:18:17;;;;;;;39.58;19.90;;;;;;;9.24;100.00;100521.97;6201970;28;20058;-79
2021/05/15 00:21:18;;;;;;;41.05;20.67;;;;;;;9.29;100.00;100520.81;6202044;28;20050;-79
2021/05/15 00:24:20;;;;;;;37.08;19.35;;;;;;;9.36;100.00;100516.13;6201427;28;20133;-78
2021/05/15 00:27:21;;;;;;;38.40;19.52;;;;;;;9.44;100.00;100521.78;6202062;28;20113;-79
2021/05/15 00:30:22;;;;;;;41.22;20.38;;;;;;;9.50;100.00;100531.97;6201809;28;20047;-78
2021/05/15 00:33:22;;;;;;;49.95;21.98;;;;;;;9.58;100.00;100523.69;6201632;28;20065;-79
2021/05/15 00:36:23;;;;;;;40.42;20.10;;;;;;;9.53;100.00;100515.22;6201197;28;20085;-78
2021/05/15 00:39:25;;;;;;;41.78;19.23;;;;;;;9.51;100.00;100515.31;6201219;28;20128;-78
2021/05/15 00:42:26;;;;;;;39.33;20.15;;;;;;;9.58;100.00;100513.19;6201818;28;20050;-79
2021/05/15 00:45:27;;;;;;;39.15;21.20;;;;;;;9.58;100.00;100511.44;6201034;28;20089;-78
2021/05/15 00:48:28;;;;;;;38.17;19.00;;;;;;;9.62;100.00;100510.31;6201656;28;20050;-79
2021/05/15 00:51:28;;;;;;;38.13;19.95;;;;;;;9.64;100.00;100507.63;6199916;28;20132;-79
2021/05/15 00:54:30;;;;;;;42.35;19.58;;;;;;;9.64;100.00;100495.34;6201336;28;20050;-78
2021/05/15 00:57:31;;;;;;;35.90;20.08;;;;;;;9.64;100.00;100494.50;6200959;28;20050;-79
2021/05/15 01:00:32;;;;;;;35.15;18.95;;;;;;;9.58;100.00;100492.19;6201316;28;20418;-79
2021/05/15 01:03:33;;;;;;;29.95;19.05;;;;;;;9.55;100.00;100489.75;6200929;28;20073;-79
2021/05/15 01:06:36;;;;;;;35.97;18.52;;;;;;;9.49;100.00;100493.53;6200749;28;20046;-79
2021/05/15 01:09:38;;;;;;;37.28;19.55;;;;;;;9.40;100.00;100494.88;6200870;28;20054;-78
2021/05/15 01:12:48;;;;;;;36.20;18.20;;;;;;;9.33;100.00;100488.25;6200577;28;20113;-79
2021/05/15 01:15:49;;;;;;;36.25;19.45;;;;;;;9.22;100.00;100492.34;6200657;28;20046;-79
2021/05/15 01:18:51;;;;;;;46.08;18.63;;;;;;;9.17;100.00;100489.13;6200674;28;20065;-78
2021/05/15 01:21:53;;;;;;;34.00;20.15;;;;;;;9.09;100.00;100484.31;6200553;28;20058;-79
2021/05/15 01:24:53;;;;;;;38.63;19.67;;;;;;;9.03;100.00;100481.97;6200353;28;20109;-78
2021/05/15 01:27:54;;;;;;;32.03;19.55;;;;;;;8.97;100.00;100491.00;6200460;28;20050;-78
2021/05/15 01:30:55;;;;;;;36.78;18.15;;;;;;;8.87;100.00;100480.13;6200226;28;20054;-79
2021/05/15 01:33:56;;;;;;;38.83;18.73;;;;;;;8.80;100.00;100478.75;6199670;28;20589;-79
2021/05/15 01:36:58;;;;;;;30.73;18.52;;;;;;;8.76;100.00;100485.06;6199259;28;20050;-79
2021/05/15 01:39:59;;;;;;;31.65;19.30;;;;;;;8.71;100.00;100476.59;6195572;28;20384;-79
2021/05/15 01:43:00;;;;;;;31.45;18.23;;;;;;;8.75;100.00;100486.00;6196029;28;20081;-79
2021/05/15 01:46:02;;;;;;;32.85;19.02;;;;;;;8.69;100.00;100483.69;6200312;28;20520;-79
2021/05/15 01:49:03;;;;;;;33.45;19.48;;;;;;;8.69;100.00;100481.06;6199832;28;20483;-78
2021/05/15 01:52:05;;;;;;;38.10;19.10;;;;;;;8.66;100.00;100475.97;6199810;28;20051;-79
2021/05/15 01:55:15;;;;;;;37.97;19.00;;;;;;;8.69;100.00;100470.59;6199228;28;20057;-78
2021/05/15 01:58:15;;;;;;;30.88;17.88;;;;;;;8.72;100.00;100464.31;6191780;28;20054;-79
2021/05/15 02:01:17;;;;;;;32.03;17.45;;;;;;;8.78;100.00;100456.19;6199537;28;20057;-79
2021/05/15 02:04:18;;;;;;;39.35;19.38;;;;;;;8.75;100.00;100461.56;6199371;28;20061;-79
2021/05/15 02:07:20;;;;;;;39.13;20.15;;;;;;;8.76;100.00;100456.25;6199975;28;20050;-79
2021/05/15 02:10:21;;;;;;;38.10;19.05;;;;;;;8.77;100.00;100460.56;6199738;28;20058;-79
2021/05/15 02:13:22;;;;;;;42.60;19.75;;;;;;;8.77;100.00;100457.97;6198793;28;20144;-78
2021/05/15 02:16:23;;;;;;;30.85;17.75;;;;;;;8.76;100.00;100444.91;6198941;28;20050;-79
2021/05/15 02:19:23;;;;;;;34.75;17.80;;;;;;;8.69;100.00;100439.16;6199002;28;20054;-78
2021/05/15 02:22:25;;;;;;;40.65;19.48;;;;;;;8.72;100.00;100433.78;6199179;28;20053;-79
2021/05/15 02:25:27;;;;;;;33.03;18.40;;;;;;;8.68;100.00;100444.47;6199023;28;20050;-78
2021/05/15 02:28:28;;;;;;;41.28;19.83;;;;;;;8.65;100.00;100440.22;6198729;28;20054;-78
2021/05/15 02:31:29;;;;;;;35.10;19.05;;;;;;;8.67;100.00;100443.59;6199168;28;20057;-79
2021/05/15 02:34:30;;;;;;;32.47;17.90;;;;;;;8.73;100.00;100451.19;6198769;28;20053;-78
2021/05/15 02:37:32;;;;;;;36.33;20.10;;;;;;;8.74;100.00;100445.00;6199368;28;20085;-78
2021/05/15 02:40:33;;;;;;;38.33;19.80;;;;;;;8.75;100.00;100446.69;6198891;28;20105;-79
2021/05/15 02:43:34;;;;;;;47.72;22.65;;;;;;;8.79;100.00;100442.16;6198639;28;20050;-79
2021/05/15 02:46:35;;;;;;;42.83;22.20;;;;;;;8.77;100.00;100438.78;6199121;28;20518;-79
2021/05/15 02:49:36;;;;;;;44.00;22.00;;;;;;;8.70;100.00;100432.13;6198560;28;20057;-79
2021/05/15 02:52:38;;;;;;;49.03;23.65;;;;;;;8.57;100.00;100442.38;6198505;28;20050;-78
2021/05/15 02:55:39;;;;;;;41.88;24.42;;;;;;;8.53;100.00;100441.69;6198621;28;20419;-79
2021/05/15 02:58:40;;;;;;;41.72;24.98;;;;;;;8.61;100.00;100433.44;6200321;28;20513;-79
2021/05/15 03:01:41;;;;;;;44.40;26.00;;;;;;;8.69;100.00;100433.06;6193284;28;20047;-79
2021/05/15 03:04:41;;;;;;;47.28;24.30;;;;;;;8.64;100.00;100431.53;6185595;28;20088;-79
2021/05/15 03:07:43;;;;;;;42.08;23.58;;;;;;;8.69;100.00;100430.44;6186938;28;20132;-79
2021/05/15 03:10:44;;;;;;;45.75;24.42;;;;;;;8.61;100.00;100430.81;6184706;28;20487;-79
2021/05/15 03:13:45;;;;;;;40.33;22.83;;;;;;;8.60;100.00;100437.84;6184614;28;20046;-78
2021/05/15 03:16:46;;;;;;;38.50;23.13;;;;;;;8.49;100.00;100431.44;6190141;28;20058;-79
2021/05/15 03:19:48;;;;;;;42.38;24.70;;;;;;;8.50;100.00;100435.75;6194973;28;20050;-80
2021/05/15 03:22:50;;;;;;;40.40;24.92;;;;;;;8.47;100.00;100436.75;6202958;28;20050;-80
2021/05/15 03:25:51;;;;;;;46.65;25.50;;;;;;;8.57;100.00;100434.53;6203111;28;20047;-80
2021/05/15 03:28:51;;;;;;;41.88;24.45;;;;;;;8.55;100.00;100428.53;6202852;28;20050;-79
2021/05/15 03:31:53;;;;;;;42.17;25.35;;;;;;;8.49;100.00;100428.81;6202941;28;20132;-79
2021/05/15 03:34:54;;;;;;;46.70;24.92;;;;;;;8.45;100.00;100422.03;6202743;28;20108;-79
2021/05/15 03:37:55;;;;;;;41.95;23.52;;;;;;;8.37;100.00;100428.50;6202822;28;20511;-80
2021/05/15 03:40:56;;;;;;;42.72;25.30;;;;;;;8.41;100.00;100429.22;6203195;28;20077;-80
2021/05/15 03:43:57;;;;;;;44.45;25.30;;;;;;;8.58;100.00;100429.22;6202346;28;20054;-80
2021/05/15 03:46:58;;;;;;;41.08;24.35;;;;;;;8.61;100.00;100418.56;6202700;28;20066;-80
2021/05/15 03:49:59;;;;;;;48.67;25.50;;;;;;;8.54;100.00;100418.94;6202113;28;20427;-79
2021/05/15 03:53:01;;;;;;;41.90;24.05;;;;;;;8.57;100.00;100421.44;6202204;28;20418;-79
2021/05/15 03:56:02;;;;;;;36.47;23.42;;;;;;;8.68;100.00;100426.97;6202078;28;20104;-80
2021/05/15 03:59:04;;;;;;;43.70;26.23;;;;;;;8.72;100.00;100431.16;6202205;28;20057;-80
2021/05/15 04:02:04;;;;;;;45.15;25.58;;;;;;;8.79;100.00;100434.28;6202423;28;20053;-80
2021/05/15 04:05:07;;;;;;;43.88;25.60;;;;;;;8.84;100.00;100445.38;6202034;28;20430;-79
2021/05/15 04:08:08;;;;;;;41.67;25.08;;;;;;;8.87;100.00;100434.75;6202437;28;20046;-80
2021/05/15 04:11:10;;;;;;;44.22;25.73;;;;;;;8.91;100.00;100430.22;6202071;28;20050;-80
2021/05/15 04:14:23;;;;;;;36.58;23.52;;;;;;;8.96;100.00;100436.06;6201716;28;20050;-80
2021/05/15 04:17:28;;;;;;;36.58;23.60;;;;;;;9.00;100.00;100435.81;6202506;28;20133;-80
2021/05/15 04:20:29;;;;;;;35.30;22.73;;;;;;;9.02;100.00;100425.25;6201966;28;20053;-80
2021/05/15 04:23:30;;;;;;;36.33;22.98;;;;;;;9.03;100.00;100430.41;6201446;28;20050;-80
2021/05/15 04:26:32;;;;;;;35.78;24.13;;;;;;;9.05;100.00;100428.56;6201587;28;20046;-79
2021/05/15 04:29:33;;;;;;;36.65;24.05;;;;;;;9.00;100.00;100422.72;6201381;28;20406;-79
2021/05/15 04:32:34;;;;;;;38.78;23.27;;;;;;;9.03;100.00;100433.00;6201517;28;20053;-80
2021/05/15 04:35:35;;;;;;;37.75;23.23;;;;;;;9.03;100.00;100425.16;6235477;23;20045;-78
2021/05/15 04:38:36;;;;;;;41.35;23.48;;;;;;;9.08;100.00;100419.66;6249847;28;20041;-78
2021/05/15 04:41:37;;;;;;;46.25;24.25;;;;;;;9.10;100.00;100417.84;6249714;28;20042;-77
2021/05/15 04:44:38;;;;;;;42.42;24.73;;;;;;;9.14;100.00;100424.59;6249042;28;20525;-77
2021/05/15 04:47:39;;;;;;;40.35;23.77;;;;;;;9.20;100.00;100420.81;6249404;28;20434;-77
2021/05/15 04:50:40;;;;;;;36.70;23.70;;;;;;;9.25;100.00;100424.88;6249836;28;20042;-77
2021/05/15 04:53:41;;;;;;;33.38;21.52;;;;;;;9.32;100.00;100425.41;6249171;28;20081;-77
2021/05/15 04:56:42;;;;;;;39.50;23.48;;;;;;;9.15;100.00;100424.53;6249282;28;20391;-78
2021/05/15 04:59:44;;;;;;;41.13;24.17;;;;;;;9.15;100.00;100419.28;6249109;28;20140;-77
2021/05/15 05:02:44;;;;;;;45.80;25.00;;;;;;;9.24;100.00;100420.56;6249168;28;20042;-78
2021/05/15 05:05:45;;;;;;;50.45;25.02;;;;;;;9.28;100.00;100432.59;6249031;28;20045;-77
2021/05/15 05:08:47;;;;;;;55.70;26.17;;;;;;;9.29;100.00;100417.69;6248980;28;20060;-77
2021/05/15 05:11:48;;;;;;;45.65;24.80;;;;;;;9.36;100.00;100424.31;6249232;28;20551;-77
2021/05/15 05:14:49;;;;;;;49.80;25.52;;;;;;;9.40;100.00;100424.09;6248841;28;20585;-78
2021/05/15 05:17:50;;;;;;;46.50;24.10;;;;;;;9.46;100.00;100422.06;6249238;28;20060;-77
2021/05/15 05:20:51;;;;;;;46.15;24.83;;;;;;;9.46;100.00;100420.28;6248720;28;20042;-77
2021/05/15 05:23:52;;;;;;;47.00;24.25;;;;;;;9.52;100.00;100412.06;6248713;28;20053;-78
2021/05/15 05:26:54;;;;;;;48.35;24.13;;;;;;;9.50;100.00;100413.09;6245628;28;20494;-78
2021/05/15 05:29:55;;;;;;;40.80;22.85;;;;;;;9.59;100.00;100407.34;6246386;28;20050;-78
2021/05/15 05:33:00;;;;;;;45.35;24.45;;;;;;;9.54;100.00;100404.97;6237442;28;20091;-78
2021/05/15 05:36:01;;;;;;;52.55;23.83;;;;;;;9.45;100.00;100400.22;6244954;28;20050;-77
2021/05/15 05:39:08;;;;;;;40.83;23.73;;;;;;;9.47;100.00;100402.75;6248232;28;20188;-77
2021/05/15 05:42:10;;;;;;;46.38;22.52;;;;;;;9.60;100.00;100401.16;6236937;28;20056;-78
2021/05/15 05:45:14;;;;;;;41.92;23.40;;;;;;;9.75;100.00;100394.22;6248165;28;20056;-78
2021/05/15 05:48:18;;;;;;;50.25;25.40;;;;;;;9.89;100.00;100394.28;6248119;28;20425;-77
2021/05/15 05:51:19;;;;;;;42.67;23.50;;;;;;;9.98;100.00;100404.25;6247766;28;20056;-78
2021/05/15 05:54:20;;;;;;;53.28;23.63;;;;;;;10.01;100.00;100409.34;6235723;28;20204;-77
2021/05/15 05:57:21;;;;;;;47.50;24.02;;;;;;;10.04;100.00;100413.59;6235854;28;20056;-77
2021/05/15 06:00:23;;;;;;;45.78;23.08;;;;;;;10.05;100.00;100417.91;6233356;28;20126;-77
2021/05/15 06:03:23;;;;;;;40.97;22.55;;;;;;;10.01;100.00;100417.22;6237612;28;20060;-77
2021/05/15 06:06:24;;;;;;;50.35;23.50;;;;;;;10.02;100.00;100400.53;6242847;28;20049;-77
2021/05/15 06:09:26;;;;;;;46.72;23.80;;;;;;;10.08;100.00;100402.84;6223259;28;20053;-77
2021/05/15 06:12:27;;;;;;;44.70;23.83;;;;;;;10.11;100.00;100402.63;6222913;28;20509;-76
2021/05/15 06:15:28;;;;;;;45.00;23.02;;;;;;;10.05;100.00;100400.38;6222667;28;20050;-76
2021/05/15 06:18:29;;;;;;;41.78;23.33;;;;;;;10.01;100.00;100411.97;6222792;28;20050;-76
2021/05/15 06:21:30;;;;;;;39.85;22.80;;;;;;;10.03;100.00;100417.13;6222797;28;20494;-77
2021/05/15 06:24:31;;;;;;;46.33;25.15;;;;;;;9.95;100.00;100414.09;6237954;28;20053;-77
2021/05/15 06:27:32;;;;;;;49.63;23.23;;;;;;;9.91;100.00;100409.03;6246978;28;20060;-77
2021/05/15 06:30:33;;;;;;;41.35;23.48;;;;;;;9.96;100.00;100408.78;6247314;28;20081;-77
2021/05/15 06:33:35;;;;;;;38.20;22.30;;;;;;;10.01;100.00;100403.25;6246758;28;20053;-77
2021/05/15 06:36:36;;;;;;;44.97;23.85;;;;;;;10.03;100.00;100407.47;6247078;28;20052;-77
2021/05/15 06:39:38;;;;;;;40.85;23.00;;;;;;;10.03;100.00;100401.38;6246989;28;20080;-77
2021/05/15 06:42:39;;;;;;;45.58;23.25;;;;;;;10.07;100.00;100398.50;6246794;28;20091;-76
2021/05/15 06:45:40;;;;;;;51.90;23.70;;;;;;;10.16;100.00;100403.22;6246685;28;20050;-76
2021/05/15 06:48:41;;;;;;;48.08;23.60;;;;;;;10.13;100.00;100392.91;6246124;28;20421;-77
2021/05/15 06:51:42;;;;;;;42.53;22.67;;;;;;;10.18;100.00;100397.06;6246837;28;20088;-77
2021/05/15 06:54:44;;;;;;;43.30;22.73;;;;;;;10.18;100.00;100386.56;6246489;28;20266;-76
2021/05/15 06:57:45;;;;;;;34.30;21.25;;;;;;;10.26;100.00;100387.81;6246960;28;20049;-77
2021/05/15 07:00:46;;;;;;;45.72;25.38;;;;;;;10.32;100.00;100382.22;6246673;28;20068;-77
2021/05/15 07:03:47;;;;;;;43.55;24.35;;;;;;;10.31;100.00;100388.41;6246733;28;20053;-77
2021/05/15 07:06:48;;;;;;;39.50;23.63;;;;;;;10.33;100.00;100388.31;6246587;28;20049;-77
2021/05/15 07:09:50;;;;;;;41.90;26.15;;;;;;;10.39;100.00;100386.16;6246437;28;20136;-76
2021/05/15 07:12:51;;;;;;;44.17;24.95;;;;;;;10.56;100.00;100379.09;6246511;28;20147;-77
2021/05/15 07:15:52;;;;;;;43.00;24.10;;;;;;;10.61;100.00;100379.66;6246623;28;20088;-77
2021/05/15 07:18:53;;;;;;;45.92;23.80;;;;;;;10.68;100.00;100378.38;6246578;28;20050;-77
2021/05/15 07:21:54;;;;;;;44.15;26.63;;;;;;;10.66;100.00;100369.72;6246661;28;20502;-78
2021/05/15 07:24:56;;;;;;;41.00;22.88;;;;;;;10.71;100.00;100369.44;6246601;28;20057;-78
2021/05/15 07:27:57;;;;;;;39.15;24.00;;;;;;;10.79;100.00;100368.03;6247305;28;20100;-80
2021/05/15 07:30:58;;;;;;;39.97;23.52;;;;;;;10.82;100.00;100364.41;6247457;28;20486;-78
2021/05/15 07:34:01;;;;;;;94.53;25.58;;;;;;;10.80;100.00;100367.09;6247337;28;20049;-78
2021/05/15 07:37:01;;;;;;;49.53;24.67;;;;;;;10.84;100.00;100357.25;6246006;28;20041;-78
2021/05/15 07:40:04;;;;;;;39.83;23.73;;;;;;;10.83;100.00;100360.81;6246544;28;20047;-77
2021/05/15 07:43:05;;;;;;;40.70;23.67;;;;;;;10.90;100.00;100352.47;6246447;28;20053;-77
2021/05/15 07:46:06;;;;;;;39.67;24.77;;;;;;;10.89;100.00;100353.41;6246829;28;20049;-79
2021/05/15 07:49:07;;;;;;;40.28;23.33;;;;;;;10.95;100.00;100351.34;6246406;28;20583;-78
2021/05/15 07:52:08;;;;;;;45.25;25.95;;;;;;;10.97;100.00;100354.72;6247020;28;20509;-78
2021/05/15 07:55:11;;;;;;;37.15;23.08;;;;;;;10.96;100.00;100363.56;6246868;28;20045;-78
2021/05/15 07:58:12;;;;;;;42.15;23.85;;;;;;;10.96;100.00;100361.78;6238644;28;20490;-78
2021/05/15 08:01:13;;;;;;;40.10;23.90;;;;;;;11.02;100.00;100358.75;6250031;28;20132;-76
2021/05/15 08:04:13;;;;;;;38.72;24.95;;;;;;;11.09;100.00;100356.63;6251054;28;20132;-78
2021/05/15 08:07:14;;;;;;;38.50;24.33;;;;;;;11.21;100.00;100361.09;6251079;28;20080;-78
2021/05/15 08:10:16;;;;;;;39.40;23.50;;;;;;;11.29;100.00;100358.00;6250713;28;20135;-79
2021/05/15 08:13:17;;;;;;;35.67;22.65;;;;;;;11.33;99.89;100357.72;6250550;28;20099;-76
2021/05/15 08:16:18;;;;;;;41.70;22.67;;;;;;;11.37;100.00;100353.94;6250258;28;20557;-76
2021/05/15 08:19:19;;;;;;;37.30;23.30;;;;;;;11.40;99.77;100358.19;6250518;28;20406;-78
2021/05/15 08:22:20;;;;;;;35.33;22.02;;;;;;;11.47;99.83;100351.56;6251141;28;20052;-78
2021/05/15 08:25:25;;;;;;;34.05;20.58;;;;;;;11.52;99.71;100354.75;6249177;28;20046;-77
2021/05/15 08:28:26;;;;;;;31.83;19.63;;;;;;;11.55;98.47;100359.00;6250420;28;20054;-76
2021/05/15 08:31:26;;;;;;;36.97;20.88;;;;;;;11.61;98.14;100351.53;6249757;28;20454;-76
2021/05/15 08:34:27;;;;;;;30.58;20.20;;;;;;;11.70;97.91;100347.47;6249771;28;20046;-77
2021/05/15 08:37:29;;;;;;;30.80;19.10;;;;;;;11.78;97.43;100345.19;6249569;28;20049;-76
2021/05/15 08:40:31;;;;;;;29.90;20.10;;;;;;;11.87;97.40;100343.78;6249782;28;20493;-75
2021/05/15 08:43:33;;;;;;;29.00;19.00;;;;;;;11.87;96.54;100344.63;6249371;28;20448;-77
2021/05/15 08:46:35;;;;;;;28.65;18.95;;;;;;;12.00;96.92;100342.03;6249473;28;20057;-76
2021/05/15 08:49:37;;;;;;;27.30;18.65;;;;;;;11.99;96.02;100334.22;6249458;28;20053;-76
2021/05/15 08:52:40;;;;;;;26.58;17.83;;;;;;;11.99;95.53;100329.81;6250201;28;20049;-76
2021/05/15 08:55:42;;;;;;;29.05;19.52;;;;;;;12.07;95.48;100331.94;6248980;28;20489;-76
2021/05/15 08:58:44;;;;;;;27.63;19.23;;;;;;;12.09;95.10;100328.25;6249360;28;20418;-76
2021/05/15 09:01:46;;;;;;;24.90;18.88;;;;;;;12.21;95.40;100325.75;6249155;28;20056;-76
2021/05/15 09:04:47;;;;;;;37.17;19.10;;;;;;;12.15;95.42;100319.94;6247047;28;20045;-76
2021/05/15 09:07:51;;;;;;;27.45;17.42;;;;;;;12.18;95.19;100324.19;6247269;28;20066;-73
2021/05/15 09:10:53;;;;;;;24.83;16.05;;;;;;;12.10;94.55;100316.78;6248143;28;20049;-73
2021/05/15 09:13:55;;;;;;;25.73;15.00;;;;;;;12.21;94.04;100318.69;6248674;28;20520;-73
2021/05/15 09:16:57;;;;;;;16.52;12.60;;;;;;;12.21;91.85;100316.03;6248095;28;20100;-75
2021/05/15 09:19:58;;;;;;;15.30;10.10;;;;;;;12.32;88.21;100318.81;6245593;28;20045;-71
2021/05/15 09:23:09;;;;;;;17.30;9.98;;;;;;;12.44;88.94;100318.00;6241812;28;20529;-70
2021/05/15 09:26:13;;;;;;;13.95;9.85;;;;;;;12.62;86.46;100315.03;6245861;28;20049;-72
2021/05/15 09:29:13;;;;;;;14.45;9.32;;;;;;;12.62;83.54;100304.47;6248500;28;20045;-77
2021/05/15 09:32:16;;;;;;;15.70;9.35;;;;;;;12.75;83.66;100301.84;6248706;28;20056;-76
2021/05/15 09:35:25;;;;;;;14.90;9.32;;;;;;;12.77;84.49;100299.97;6247225;28;20045;-76
2021/05/15 09:38:25;;;;;;;13.55;7.78;;;;;;;13.03;82.75;100292.84;6248660;28;20443;-76
2021/05/15 09:41:35;;;;;;;16.10;8.07;;;;;;;13.19;83.16;100289.00;6248928;28;20158;-76
2021/05/15 09:44:36;;;;;;;17.67;9.32;;;;;;;13.36;80.42;100287.84;6248621;28;20045;-76
2021/05/15 09:47:37;;;;;;;13.27;8.10;;;;;;;13.71;77.48;100276.47;6248165;28;20080;-76
2021/05/15 09:50:40;;;;;;;12.88;8.13;;;;;;;13.58;76.54;100270.41;6248099;28;20049;-76
2021/05/15 09:53:41;;;;;;;20.73;9.55;;;;;;;13.35;77.86;100266.81;6249717;28;20489;-76
2021/05/15 09:56:43;;;;;;;10.63;7.90;;;;;;;13.43;77.92;100264.47;6248007;28;20057;-76
2021/05/15 09:59:49;;;;;;;13.23;8.27;;;;;;;13.52;74.51;100255.88;6245940;28;20065;-77
2021/05/15 10:02:55;;;;;;;16.20;8.20;;;;;;;13.53;77.31;100260.19;6242165;28;20084;-76
2021/05/15 10:06:04;;;;;;;10.40;7.70;;;;;;;13.65;78.92;100258.47;6247660;28;20045;-76
2021/05/15 10:09:05;;;;;;;13.82;7.40;;;;;;;13.79;76.66;100249.50;6242605;28;20046;-76
2021/05/15 10:12:07;;;;;;;10.88;6.68;;;;;;;13.82;76.60;100242.22;6244394;28;20042;-76
2021/05/15 10:15:09;;;;;;;21.52;7.85;;;;;;;13.76;76.58;100233.88;6247378;28;20053;-76
2021/05/15 10:18:10;;;;;;;10.65;6.68;;;;;;;13.73;77.17;100234.97;6247809;28;20045;-76
2021/05/15 10:21:12;;;;;;;10.63;6.40;;;;;;;13.73;75.64;100231.50;6247174;28;20434;-76
2021/05/15 10:24:20;;;;;;;12.70;7.55;;;;;;;13.73;75.61;100219.13;6247113;28;20049;-76
2021/05/15 10:27:22;;;;;;;9.20;4.47;;;;;;;13.92;71.31;100216.78;6247099;28;20050;-70
2021/05/15 10:30:24;;;;;;;7.43;4.22;;;;;;;13.81;70.37;100208.00;6247422;28;20061;-76
2021/05/15 10:33:30;;;;;;;6.90;3.92;;;;;;;13.99;70.50;100208.38;6246933;28;20053;-75
2021/05/15 10:36:31;;;;;;;6.82;3.55;;;;;;;14.31;71.40;100203.28;6249008;22;20050;-77
2021/05/15 10:39:33;;;;;;;5.30;4.10;;;;;;;14.63;68.00;100195.50;6198770;28;20057;-78
2021/05/15 10:42:35;;;;;;;7.90;4.38;;;;;;;14.31;69.79;100179.50;6197964;28;20078;-72
2021/05/15 10:45:37;;;;;;;5.38;3.65;;;;;;;14.36;69.69;100180.81;6184513;28;20050;-73
2021/05/15 10:48:38;;;;;;;6.18;4.05;;;;;;;14.50;71.19;100171.00;6174322;28;20043;-76
2021/05/15 10:51:41;;;;;;;5.68;3.50;;;;;;;14.38;69.15;100176.22;6174290;28;20050;-77
2021/05/15 10:54:44;;;;;;;7.43;3.40;;;;;;;14.10;69.25;100172.25;6177452;28;20059;-77
2021/05/15 10:57:46;;;;;;;6.50;3.03;;;;;;;14.50;68.90;100165.72;6174240;28;20484;-77
2021/05/15 11:00:47;;;;;;;4.20;2.28;;;;;;;14.45;68.04;100166.03;6174123;28;20050;-77
2021/05/15 11:03:49;;;;;;;2.55;1.95;;;;;;;14.30;68.35;100159.28;6173917;28;20094;-77
2021/05/15 11:07:06;;;;;;;3.17;1.67;;;;;;;14.36;67.89;100158.84;6174295;28;20102;-77
2021/05/15 11:10:09;;;;;;;1.83;1.52;;;;;;;14.63;67.88;100151.38;6174471;28;20059;-77
2021/05/15 11:13:14;;;;;;;5.78;1.77;;;;;;;14.76;67.64;100159.19;6173599;28;20055;-77
2021/05/15 11:16:15;;;;;;;3.92;1.83;;;;;;;14.65;68.95;100153.91;6173277;28;20494;-77
2021/05/15 11:19:16;;;;;;;4.55;2.13;;;;;;;14.38;67.55;100147.16;6174080;28;20062;-79
2021/05/15 11:22:18;;;;;;;2.78;1.45;;;;;;;14.20;70.34;100154.72;6175204;28;20579;-78
2021/05/15 11:25:25;;;;;;;3.60;1.50;;;;;;;14.05;70.79;100150.63;6174804;28;20055;-79
2021/05/15 11:28:28;;;;;;;2.35;1.67;;;;;;;13.90;72.63;100150.03;6175058;28;20217;-78
2021/05/15 11:31:29;;;;;;;7.78;2.30;;;;;;;13.81;74.93;100152.53;6174879;28;20047;-78
2021/05/15 11:34:30;;;;;;;3.47;1.88;;;;;;;13.74;77.47;100167.16;6175385;28;20507;-77
2021/05/15 11:37:31;;;;;;;23.80;2.45;;;;;;;13.63;81.65;100163.53;6179332;28;20101;-76
2021/05/15 11:40:33;;;;;;;6.95;2.05;;;;;;;12.97;86.51;100164.88;6178695;28;20051;-77
2021/05/15 11:43:37;;;;;;;3.85;1.67;;;;;;;12.49;92.98;100174.50;6178598;28;20053;-77
2021/05/15 11:46:38;;;;;;;4.38;1.52;;;;;;;12.09;93.67;100175.50;6178339;28;20058;-77
2021/05/15 11:49:39;;;;;;;4.10;1.40;;;;;;;11.83;95.12;100181.69;6177960;28;20055;-77
2021/05/15 11:52:40;;;;;;;3.03;1.10;;;;;;;11.62;97.03;100179.50;6178455;28;20047;-77
2021/05/15 11:55:41;;;;;;;3.95;1.08;;;;;;;11.47;96.31;100180.53;6178507;28;20085;-74
2021/05/15 11:58:48;;;;;;;2.28;1.10;;;;;;;11.29;99.15;100187.00;6177637;28;20500;-77
2021/05/15 12:01:48;;;;;;;4.63;1.30;;;;;;;11.29;100.00;100195.75;6177577;28;20113;-74
2021/05/15 12:04:49;;;;;;;6.78;1.10;;;;;;;11.25;100.00;100198.66;6177285;28;20058;-74
2021/05/15 12:07:51;;;;;;;0.88;0.80;;;;;;;10.91;100.00;100196.44;6177211;28;20051;-76
2021/05/15 12:11:01;;;;;;;1.75;0.93;;;;;;;10.86;100.00;100197.66;6177004;28;20463;-76
2021/05/15 12:14:04;;;;;;;2.00;1.00;;;;;;;10.85;100.00;100198.59;6176780;28;20054;-77
2021/05/15 12:17:06;;;;;;;2.05;1.30;;;;;;;10.81;100.00;100203.22;6177976;28;20504;-77
2021/05/15 12:20:08;;;;;;;1.58;0.80;;;;;;;10.88;100.00;100203.66;6178260;28;20054;-77
2021/05/15 12:23:12;;;;;;;1.35;0.80;;;;;;;10.94;100.00;100195.38;6179201;28;20105;-78
2021/05/15 12:26:13;;;;;;;2.15;1.10;;;;;;;11.07;100.00;100188.41;6179195;28;20415;-77
2021/05/15 12:29:15;;;;;;;1.13;1.02;;;;;;;11.07;100.00;100183.13;6178833;28;20047;-78
2021/05/15 12:32:24;;;;;;;1.92;1.50;;;;;;;11.18;100.00;100174.56;6178475;28;20411;-78
2021/05/15 12:35:25;;;;;;;2.75;1.88;;;;;;;11.22;100.00;100169.94;6177994;28;20392;-78
2021/05/15 12:38:26;;;;;;;1.50;1.25;;;;;;;11.20;100.00;100169.19;6178139;28;20062;-75
2021/05/15 12:41:33;;;;;;;1.33;1.00;;;;;;;11.08;99.37;100170.81;6176589;28;20415;-77
2021/05/15 12:44:39;;;;;;;2.95;0.95;;;;;;;10.99;96.58;100155.66;6176883;28;20086;-77
2021/05/15 12:47:40;;;;;;;1.40;1.15;;;;;;;10.99;98.65;100158.28;6175300;28;20062;-77
2021/05/15 12:50:41;;;;;;;2.15;1.25;;;;;;;10.79;98.50;100144.63;6176464;28;20054;-76
2021/05/15 12:53:42;;;;;;;2.58;1.23;;;;;;;10.82;99.14;100140.97;6176006;28;20047;-77
2021/05/15 12:56:50;;;;;;;1.92;1.23;;;;;;;10.85;99.44;100133.72;6176222;28;20611;-77
2021/05/15 12:59:54;;;;;;;1.60;1.08;;;;;;;10.83;98.82;100137.41;6176227;28;20109;-77
2021/05/15 13:02:58;;;;;;;1.27;1.02;;;;;;;10.93;94.89;100135.84;6175984;28;20043;-77
2021/05/15 13:05:59;;;;;;;0.98;0.93;;;;;;;10.73;97.01;100126.63;6175994;28;20082;-76
2021/05/15 13:09:00;;;;;;;1.40;1.30;;;;;;;10.80;100.00;100130.53;6176045;28;20106;-76
2021/05/15 13:12:01;;;;;;;1.73;1.40;;;;;;;11.16;100.00;100129.09;6175629;28;20118;-77
2021/05/15 13:15:04;;;;;;;2.08;1.88;;;;;;;11.93;100.00;100119.56;6180312;28;20046;-76
2021/05/15 13:18:14;;;;;;;2.15;1.17;;;;;;;13.02;95.59;100120.53;6194851;28;20051;-74
2021/05/15 13:21:15;;;;;;;1.45;1.10;;;;;;;13.38;91.56;100110.88;6196769;28;20038;-77
2021/05/15 13:24:16;;;;;;;0.98;0.85;;;;;;;13.97;93.56;100118.69;6199675;28;20054;-77
2021/05/15 13:27:17;;;;;;;2.80;0.93;;;;;;;14.01;85.34;100109.56;6192085;28;20050;-77
2021/05/15 13:30:20;;;;;;;0.70;0.68;;;;;;;14.25;86.41;100108.59;6192369;28;20139;-77
2021/05/15 13:33:20;;;;;;;1.83;0.80;;;;;;;14.49;90.67;100106.69;6199959;28;20058;-77
2021/05/15 13:36:21;;;;;;;2.03;0.63;;;;;;;14.88;81.41;100088.56;6192848;28;20050;-77
2021/05/15 13:39:22;;;;;;;1.30;0.60;;;;;;;14.94;85.43;100091.56;6198304;28;20418;-77
2021/05/15 13:42:23;;;;;;;0.93;0.52;;;;;;;15.21;86.65;100084.94;6177042;28;20125;-77
2021/05/15 13:45:26;;;;;;;0.90;0.52;;;;;;;15.43;77.51;100076.88;6175445;28;20047;-77
2021/05/15 13:48:33;;;;;;;1.45;0.60;;;;;;;15.26;81.44;100079.25;6175571;28;20107;-77